Airfield :
LOGIN :

Register | Disclaimer

   EN    FR    IT 

 










Legend :    VFR   Marginal VFR   IFR   Intensive IFR   Very Intensive IFR
Visi :
Ceiling :
>= 8 km
>= 3000ft
5 to 8 km
1000 to 3000 ft
1500m to 5 km
500 to 1000 ft
800 to 1500m
200 to 500 ft
< 800m
< 200 ft
Symbols :   Thunderstorms  Fog  Heavy snow  Heavy precipitations  Wind > 20 kt
SIGMETs :     Misc.  Thunderstorms  Icing  Turbulence  Mountain Waves  Volcanic Ashes






- Airport Elevation : 20 ft
- IATA code : LSI


EGPB - Sumburgh

CURRENT METAR :
  • 220750Z 09021KT 8000 -DZ FEW006 BKN012 08/07 Q1006

EXPIRED METARs :
  • 220720Z 09020KT 9999 SCT012 BKN021 08/06 Q1006 TEMPO BKN012
  • 220650Z 10018KT 9999 -DZ FEW008 SCT019 BKN025 08/06 Q1006
  • 220620Z 11017KT 9000 -RADZ SCT014 BKN032 08/06 Q1007 TEMPO SHRA BKN014
  • 220550Z AUTO 11018KT 9999 BKN011/// OVC033/// 08/06 Q1007 RERA
  • 220520Z AUTO 10019KT 7000 -RA BKN009/// OVC046/// 08/06 Q1007

TAF TAF EGPB
Valid from the 22 at 06:00 until the 22 at 15:00 UTC


220459Z 2206/2215 10017KT 9999 FEW012 SCT025
TEMPO 2206/2215 12020G30KT 4000 RADZ BKN008
PROB40
TEMPO 2206/2215 BKN005



MET'MAP, your aeronautical weather chart ! - Copyright ORBIFLY December 2007 - Disclaimer

ORBIFLY MET'MAP TEAM :

Programming & Development : Alexandra Zaïnal
Concept & Development : Baudouin d'Aumeries
Co-Development & Prog : Marc-Olivier Méhu
Technical & hardware support : Manuel Goepfert

Contact : metmap@orbifly.com




SOURCES & CREDITS :

   NOAA